Terminal Aerodrome Forecast
Issued by NWS Atlanta, GA

Home | Current Version | Previous Version | Text Only | Print | Product List | Glossary On
Versions: 1 2 3 4 5 6 7 8 9 10 11 12 13 14 15 16 17 18 19 20 21 22 23 24 25 26 27 28 29 30 31 32 33 34 35 36 37 38 39
000
FTUS42 KFFC 281100
TAFATL
TAF
KATL 281121Z 2812/2918 26009KT P6SM VCSH SCT025 BKN050
      TEMPO 2812/2814 6SM -SHRA BKN025
     FM281400 29010G18KT P6SM SCT050 BKN080
     FM281700 31012G20KT P6SM SCT100
     FM290100 32009KT P6SM SKC
     FM291400 34010G18KT P6SM FEW250=

USA.gov is the U.S. government's official web portal to all federal, state and local government web resources and services.